createdAt,value
2018-06-27T00:00:03.485Z,84.00
2018-06-27T00:02:31.615Z,84.10
2018-06-27T00:04:59.805Z,84.50
2018-06-27T00:07:28.152Z,84.70
2018-06-27T00:09:56.291Z,84.90
2018-06-27T00:12:24.464Z,85.00
2018-06-27T00:14:52.589Z,85.20
2018-06-27T00:17:20.679Z,85.60
2018-06-27T00:19:48.806Z,85.50
2018-06-27T00:22:16.874Z,85.60
2018-06-27T00:24:44.935Z,85.70
2018-06-27T00:27:12.991Z,86.00
2018-06-27T00:29:41.066Z,86.20
2018-06-27T00:32:09.321Z,86.20
2018-06-27T00:34:37.450Z,86.40
2018-06-27T00:37:05.538Z,86.40
2018-06-27T00:39:33.606Z,86.60
2018-06-27T00:42:01.702Z,86.80
2018-06-27T00:44:29.786Z,86.90
2018-06-27T00:46:57.855Z,87.20
2018-06-27T00:49:25.903Z,87.40
2018-06-27T00:51:54.015Z,87.50
2018-06-27T00:54:22.110Z,87.70
2018-06-27T00:56:50.205Z,87.80
2018-06-27T01:01:46.198Z,88.10
2018-06-27T01:04:14.281Z,88.10
2018-06-27T01:06:42.370Z,88.20
2018-06-27T01:09:11.031Z,88.20
2018-06-27T01:11:39.368Z,88.30
2018-06-27T01:14:07.506Z,88.30
2018-06-27T01:16:35.559Z,88.50
2018-06-27T01:19:03.718Z,88.50
2018-06-27T01:21:31.801Z,88.60
2018-06-27T01:23:59.870Z,88.50
2018-06-27T01:26:27.929Z,88.40
2018-06-27T01:28:56.074Z,88.50
2018-06-27T01:31:24.289Z,88.50
2018-06-27T01:33:52.358Z,88.50
2018-06-27T01:36:20.442Z,88.60
2018-06-27T01:38:48.503Z,88.60
2018-06-27T01:41:16.575Z,88.50
2018-06-27T01:43:44.654Z,88.30
2018-06-27T01:46:12.735Z,88.20
2018-06-27T01:48:40.816Z,88.00
2018-06-27T01:51:08.879Z,88.00
2018-06-27T01:53:38.036Z,88.00
2018-06-27T01:56:07.569Z,88.00
2018-06-27T01:58:35.693Z,88.20
2018-06-27T02:01:03.767Z,88.20
2018-06-27T02:03:31.856Z,88.10
2018-06-27T02:05:59.932Z,88.60
2018-06-27T02:08:28.035Z,88.80
2018-06-27T02:10:56.176Z,89.00
2018-06-27T02:15:52.174Z,89.30
2018-06-27T02:18:20.283Z,89.50
2018-06-27T02:20:48.427Z,89.50
2018-06-27T02:23:16.553Z,90.10
2018-06-27T02:25:44.665Z,89.90
2018-06-27T02:28:12.747Z,90.10
2018-06-27T02:30:40.831Z,90.00
2018-06-27T02:33:08.940Z,90.20
2018-06-27T02:35:37.006Z,90.30
2018-06-27T02:38:05.111Z,90.20
2018-06-27T02:40:33.187Z,90.70
2018-06-27T02:43:01.275Z,90.30
2018-06-27T02:45:29.350Z,90.30
2018-06-27T02:47:57.394Z,90.40
2018-06-27T02:50:25.497Z,90.00
2018-06-27T02:52:53.572Z,90.20
2018-06-27T02:55:21.693Z,90.10
2018-06-27T02:57:49.803Z,90.30
2018-06-27T03:00:17.907Z,90.20
2018-06-27T03:02:46.978Z,90.00
2018-06-27T03:05:15.088Z,90.00
2018-06-27T03:07:43.610Z,90.00
2018-06-27T03:10:11.733Z,90.20
2018-06-27T03:12:39.954Z,90.10
2018-06-27T03:15:09.055Z,90.00
2018-06-27T03:17:37.162Z,90.00
2018-06-27T03:20:05.320Z,89.70
2018-06-27T03:22:33.421Z,89.30
2018-06-27T03:25:01.543Z,89.00
2018-06-27T03:27:29.628Z,89.00
2018-06-27T03:29:57.722Z,89.00
2018-06-27T03:32:25.783Z,88.80
2018-06-27T03:34:53.870Z,88.70
2018-06-27T03:37:22.095Z,88.40
2018-06-27T03:39:50.416Z,88.30
2018-06-27T03:42:18.603Z,88.10
2018-06-27T03:44:46.704Z,88.00
2018-06-27T03:47:14.792Z,87.90
2018-06-27T03:49:42.965Z,88.00
2018-06-27T03:52:11.067Z,88.20
2018-06-27T03:54:39.195Z,88.40
2018-06-27T03:57:07.355Z,88.70
2018-06-27T03:59:35.463Z,88.50
2018-06-27T04:02:03.551Z,88.00
2018-06-27T04:04:31.687Z,88.00
2018-06-27T04:06:59.853Z,88.10
2018-06-27T04:09:27.951Z,87.80
2018-06-27T04:11:56.027Z,87.80
2018-06-27T04:14:24.154Z,87.70
2018-06-27T04:16:52.402Z,87.90
2018-06-27T04:19:20.510Z,87.70
2018-06-27T04:21:48.613Z,87.10
2018-06-27T04:24:16.686Z,87.20
2018-06-27T04:26:44.749Z,86.80
2018-06-27T04:29:12.900Z,86.50
2018-06-27T04:31:41.010Z,86.00
2018-06-27T04:34:09.079Z,85.60
2018-06-27T04:36:37.146Z,85.10
2018-06-27T04:39:07.780Z,85.00
2018-06-27T04:41:35.996Z,84.90
2018-06-27T04:44:04.118Z,84.60
2018-06-27T04:46:32.266Z,84.20
2018-06-27T04:49:00.405Z,84.50
2018-06-27T04:51:28.507Z,84.30
2018-06-27T04:53:56.574Z,84.00
2018-06-27T04:56:24.753Z,83.90
2018-06-27T04:58:52.932Z,83.40
2018-06-27T05:01:21.085Z,83.00
2018-06-27T05:03:49.206Z,82.60
2018-06-27T05:06:17.374Z,83.10
2018-06-27T05:08:45.527Z,81.70
2018-06-27T05:11:13.626Z,81.20
2018-06-27T05:13:41.746Z,80.80
2018-06-27T05:16:09.835Z,80.30
2018-06-27T05:18:37.957Z,80.30
2018-06-27T05:21:06.095Z,80.00
2018-06-27T05:23:34.222Z,79.30
2018-06-27T05:26:02.435Z,79.10
2018-06-27T05:28:30.636Z,78.70
2018-06-27T05:30:58.767Z,78.60
2018-06-27T05:33:26.888Z,77.90
2018-06-27T05:35:54.997Z,77.30
2018-06-27T05:38:23.096Z,77.40
2018-06-27T05:40:51.195Z,76.80
2018-06-27T05:43:19.308Z,76.60
2018-06-27T05:45:47.426Z,76.20
2018-06-27T05:48:15.600Z,76.30
2018-06-27T05:50:43.692Z,75.50
2018-06-27T05:53:11.834Z,75.10
2018-06-27T05:55:39.926Z,74.00
2018-06-27T05:58:08.103Z,73.00
2018-06-27T06:00:36.163Z,70.10
2018-06-27T06:03:04.273Z,68.70
2018-06-27T06:05:32.421Z,67.30
2018-06-27T06:08:00.552Z,67.20
2018-06-27T06:10:28.666Z,67.30
2018-06-27T06:12:56.836Z,67.50
2018-06-27T06:15:24.926Z,68.10
2018-06-27T06:17:53.080Z,68.70
2018-06-27T06:20:21.253Z,68.80
2018-06-27T06:22:49.324Z,67.90
2018-06-27T06:25:17.436Z,67.70
2018-06-27T06:27:45.466Z,67.30
2018-06-27T06:30:13.603Z,67.30
2018-06-27T06:32:41.678Z,67.10
2018-06-27T06:35:09.775Z,66.90
2018-06-27T06:37:37.861Z,67.40
2018-06-27T06:40:06.032Z,67.70
2018-06-27T06:42:34.098Z,67.20
2018-06-27T06:45:02.185Z,67.10
2018-06-27T06:47:30.290Z,66.30
2018-06-27T06:52:26.370Z,66.40
2018-06-27T06:54:54.510Z,65.70
2018-06-27T06:57:22.623Z,65.60
2018-06-27T06:59:50.706Z,65.20
2018-06-27T07:02:18.799Z,65.00
2018-06-27T07:04:46.878Z,64.00
2018-06-27T07:07:14.974Z,63.50
2018-06-27T07:09:43.073Z,62.90
2018-06-27T07:12:11.173Z,62.50
2018-06-27T07:14:39.266Z,61.50
2018-06-27T07:17:07.350Z,61.20
2018-06-27T07:19:35.438Z,62.20
2018-06-27T07:22:03.550Z,61.00
2018-06-27T07:24:31.631Z,60.50
2018-06-27T07:26:59.715Z,59.50
2018-06-27T07:29:27.816Z,59.30
2018-06-27T07:31:55.871Z,58.90
2018-06-27T07:34:23.957Z,58.70
2018-06-27T07:36:52.060Z,57.70
2018-06-27T07:39:20.165Z,56.70
2018-06-27T07:41:48.258Z,57.20
2018-06-27T07:44:16.385Z,56.20
2018-06-27T07:46:44.498Z,54.90
2018-06-27T07:49:12.605Z,53.50
2018-06-27T07:54:08.662Z,48.00
2018-06-27T07:56:36.763Z,46.40
2018-06-27T07:59:04.859Z,46.30
2018-06-27T08:01:32.962Z,46.00
2018-06-27T08:04:01.058Z,46.40
2018-06-27T08:06:36.496Z,47.60
2018-06-27T08:09:07.747Z,47.00
2018-06-27T08:11:35.889Z,45.30
2018-06-27T08:14:04.201Z,44.60
2018-06-27T08:16:32.340Z,44.90
2018-06-27T08:19:00.463Z,44.00
2018-06-27T08:21:28.566Z,44.30
2018-06-27T08:23:56.649Z,45.20
2018-06-27T08:26:24.831Z,46.00
2018-06-27T08:28:52.827Z,46.20
2018-06-27T08:31:20.957Z,46.60
2018-06-27T08:33:49.044Z,46.80
2018-06-27T08:36:17.161Z,47.40
2018-06-27T08:41:13.175Z,47.60
2018-06-27T08:43:41.305Z,47.30
2018-06-27T08:46:09.309Z,48.10
2018-06-27T08:48:37.470Z,48.40
2018-06-27T08:51:05.573Z,47.80
2018-06-27T08:53:33.678Z,47.50
2018-06-27T08:58:29.986Z,47.20
2018-06-27T09:00:58.098Z,47.20
2018-06-27T09:05:54.364Z,47.10
2018-06-27T09:08:22.472Z,47.30
2018-06-27T09:10:50.800Z,47.50
2018-06-27T09:13:18.883Z,47.10
2018-06-27T09:15:46.977Z,47.40
2018-06-27T09:18:15.124Z,47.50
2018-06-27T09:20:43.255Z,46.90
2018-06-27T09:23:11.360Z,46.80
2018-06-27T09:25:39.450Z,47.10
2018-06-27T09:28:07.550Z,47.50
2018-06-27T09:30:35.638Z,45.90
2018-06-27T09:33:03.769Z,46.50
2018-06-27T09:35:31.864Z,46.70
2018-06-27T09:37:59.968Z,46.50
2018-06-27T09:40:28.131Z,46.30
2018-06-27T09:42:56.259Z,46.30
2018-06-27T09:45:24.371Z,46.20
2018-06-27T09:47:52.604Z,46.30
2018-06-27T09:50:20.725Z,46.60
2018-06-27T09:52:48.908Z,46.70
2018-06-27T09:55:17.003Z,46.60
2018-06-27T09:57:45.093Z,46.70
2018-06-27T10:00:18.824Z,45.80
2018-06-27T10:02:46.913Z,44.30
2018-06-27T10:05:15.134Z,44.70
2018-06-27T10:07:43.225Z,44.70
2018-06-27T10:10:11.384Z,44.10
2018-06-27T10:12:39.551Z,42.60
2018-06-27T10:15:07.815Z,42.80
2018-06-27T10:17:35.916Z,42.00
2018-06-27T10:20:04.025Z,43.10
2018-06-27T10:25:00.057Z,43.30
2018-06-27T10:27:28.175Z,43.50
2018-06-27T10:29:56.296Z,41.90
2018-06-27T10:32:24.443Z,42.30
2018-06-27T10:34:52.594Z,40.90
2018-06-27T10:37:20.698Z,40.80
2018-06-27T10:39:48.866Z,40.30
2018-06-27T10:42:17.122Z,40.30
2018-06-27T10:44:45.316Z,40.00
2018-06-27T10:47:13.464Z,40.40
2018-06-27T10:49:41.591Z,40.20
2018-06-27T10:52:09.718Z,40.20
2018-06-27T10:54:43.435Z,40.00
2018-06-27T10:57:11.576Z,39.60
2018-06-27T10:59:39.705Z,38.30
2018-06-27T11:02:07.794Z,38.80
2018-06-27T11:04:35.993Z,38.90
2018-06-27T11:07:04.121Z,38.70
2018-06-27T11:09:32.205Z,38.70
2018-06-27T11:12:00.419Z,39.30
2018-06-27T11:14:28.618Z,38.50
2018-06-27T11:16:57.001Z,38.40
2018-06-27T11:19:25.098Z,37.60
2018-06-27T11:21:53.191Z,37.40
2018-06-27T11:24:21.585Z,37.40
2018-06-27T11:26:49.743Z,38.30
2018-06-27T11:29:17.805Z,38.80
2018-06-27T11:31:45.960Z,39.00
2018-06-27T11:34:14.138Z,38.90
2018-06-27T11:36:42.294Z,39.10
2018-06-27T11:39:12.099Z,38.70
2018-06-27T11:41:40.336Z,38.60
2018-06-27T11:44:08.530Z,37.30
2018-06-27T11:46:37.259Z,37.50
2018-06-27T11:49:06.027Z,37.30
2018-06-27T11:51:34.338Z,37.10
2018-06-27T11:54:02.707Z,37.20
2018-06-27T11:56:31.303Z,36.80
2018-06-27T11:58:59.371Z,36.10
2018-06-27T12:01:27.467Z,36.00
2018-06-27T12:03:55.663Z,36.60
2018-06-27T12:08:59.869Z,36.50
2018-06-27T12:11:27.995Z,36.20
2018-06-27T12:13:56.114Z,36.50
2018-06-27T12:16:24.186Z,37.00
2018-06-27T12:18:52.269Z,37.20
2018-06-27T12:21:20.386Z,36.70
2018-06-27T12:23:48.492Z,35.60
2018-06-27T12:26:16.570Z,36.40
2018-06-27T12:28:44.896Z,35.90
2018-06-27T12:31:12.974Z,35.50
2018-06-27T12:33:41.047Z,35.90
2018-06-27T12:36:09.214Z,36.00
2018-06-27T12:38:37.303Z,36.40
2018-06-27T12:41:05.452Z,36.40
2018-06-27T12:43:33.611Z,36.00
2018-06-27T12:46:01.696Z,36.00
2018-06-27T12:48:29.824Z,36.60
2018-06-27T12:50:57.916Z,36.70
2018-06-27T12:53:26.108Z,36.70
2018-06-27T12:55:54.456Z,36.90
2018-06-27T12:58:22.630Z,37.50
2018-06-27T13:00:51.424Z,37.20
2018-06-27T13:03:19.521Z,36.10
2018-06-27T13:05:47.733Z,36.30
2018-06-27T13:10:43.860Z,34.70
2018-06-27T13:13:12.011Z,34.30
2018-06-27T13:15:40.107Z,34.10
2018-06-27T13:18:08.274Z,34.10
2018-06-27T13:20:36.352Z,33.90
2018-06-27T13:23:04.481Z,33.50
2018-06-27T13:25:32.575Z,34.40
2018-06-27T13:28:00.764Z,34.60
2018-06-27T13:30:28.878Z,34.50
2018-06-27T13:32:56.990Z,34.00
2018-06-27T13:35:25.141Z,34.30
2018-06-27T13:37:53.299Z,35.10
2018-06-27T13:40:21.426Z,33.60
2018-06-27T13:42:49.540Z,33.70
2018-06-27T13:45:22.898Z,33.90
2018-06-27T13:47:51.034Z,35.20
2018-06-27T13:50:19.348Z,35.50
2018-06-27T13:52:47.510Z,36.00
2018-06-27T13:55:15.591Z,35.90
2018-06-27T13:57:43.842Z,35.70
2018-06-27T14:00:12.104Z,35.80
2018-06-27T14:02:40.330Z,35.50
2018-06-27T14:05:09.118Z,35.50
2018-06-27T14:07:37.187Z,35.30
2018-06-27T14:10:05.478Z,35.70
2018-06-27T14:12:33.562Z,36.00
2018-06-27T14:15:01.666Z,36.10
2018-06-27T14:19:57.737Z,35.70
2018-06-27T14:22:25.886Z,35.60
2018-06-27T14:24:53.998Z,35.20
2018-06-27T14:27:22.108Z,34.80
2018-06-27T14:29:50.275Z,34.30
2018-06-27T14:32:18.410Z,32.90
2018-06-27T14:34:46.582Z,33.70
2018-06-27T14:37:14.708Z,34.20
2018-06-27T14:39:42.824Z,34.30
2018-06-27T14:42:10.963Z,35.00
2018-06-27T14:44:39.222Z,35.20
2018-06-27T14:47:07.356Z,35.30
2018-06-27T14:49:35.571Z,35.70
2018-06-27T14:52:03.711Z,35.80
2018-06-27T14:54:31.844Z,35.70
2018-06-27T14:56:59.974Z,35.60
2018-06-27T14:59:28.163Z,35.00
2018-06-27T15:01:56.256Z,35.00
2018-06-27T15:04:24.485Z,35.10
2018-06-27T15:06:52.579Z,35.00
2018-06-27T15:09:20.707Z,35.30
2018-06-27T15:11:48.985Z,35.30
2018-06-27T15:14:17.134Z,35.70
2018-06-27T15:16:45.309Z,36.50
2018-06-27T15:19:13.458Z,36.50
2018-06-27T15:21:41.566Z,37.50
2018-06-27T15:24:09.659Z,36.70
2018-06-27T15:26:37.774Z,37.10
2018-06-27T15:29:05.880Z,36.60
2018-06-27T15:31:34.059Z,36.70
2018-06-27T15:34:02.146Z,36.00
2018-06-27T15:36:30.310Z,35.20
2018-06-27T15:38:58.438Z,36.00
2018-06-27T15:41:26.552Z,35.40
2018-06-27T15:43:54.707Z,34.80
2018-06-27T15:46:22.823Z,34.60
2018-06-27T15:48:50.975Z,35.00
2018-06-27T15:51:19.084Z,35.80
2018-06-27T15:53:47.172Z,35.50
2018-06-27T15:56:15.291Z,35.90
2018-06-27T15:58:43.358Z,35.90
2018-06-27T16:01:11.477Z,36.20
2018-06-27T16:03:39.609Z,36.50
2018-06-27T16:06:07.767Z,36.10
2018-06-27T16:08:35.950Z,35.90
2018-06-27T16:11:04.109Z,36.40
2018-06-27T16:13:32.424Z,35.60
2018-06-27T16:16:00.579Z,35.80
2018-06-27T16:18:28.742Z,35.80
2018-06-27T16:20:57.003Z,35.90
2018-06-27T16:23:25.321Z,35.90
2018-06-27T16:25:53.455Z,35.80
2018-06-27T16:28:21.586Z,35.70
2018-06-27T16:30:49.709Z,35.50
2018-06-27T16:33:17.865Z,35.30
2018-06-27T16:35:45.976Z,35.50
2018-06-27T16:38:16.095Z,35.60
2018-06-27T16:40:44.258Z,35.90
2018-06-27T16:43:12.403Z,36.00
2018-06-27T16:45:40.612Z,35.70
2018-06-27T16:48:08.782Z,36.10
2018-06-27T16:50:36.950Z,35.90
2018-06-27T16:53:05.204Z,35.60
2018-06-27T16:55:33.561Z,35.40
2018-06-27T16:58:01.755Z,34.70
2018-06-27T17:00:29.904Z,34.40
2018-06-27T17:02:58.050Z,34.40
2018-06-27T17:05:26.270Z,34.70
2018-06-27T17:07:54.347Z,35.40
2018-06-27T17:10:22.434Z,35.50
2018-06-27T17:12:50.621Z,35.20
2018-06-27T17:15:18.771Z,35.80
2018-06-27T17:17:46.882Z,36.00
2018-06-27T17:20:14.991Z,36.60
2018-06-27T17:22:43.088Z,35.80
2018-06-27T17:25:11.415Z,35.90
2018-06-27T17:27:39.461Z,36.40
2018-06-27T17:30:07.576Z,35.60
2018-06-27T17:32:35.687Z,35.80
2018-06-27T17:35:03.827Z,35.80
2018-06-27T17:37:31.948Z,36.60
2018-06-27T17:40:00.091Z,35.70
2018-06-27T17:42:28.173Z,36.00
2018-06-27T17:44:57.419Z,36.20
2018-06-27T17:47:25.541Z,36.80
2018-06-27T17:49:53.716Z,37.00
2018-06-27T17:52:21.853Z,37.30
2018-06-27T17:54:50.437Z,37.20
2018-06-27T17:57:18.352Z,37.40
2018-06-27T17:59:46.518Z,37.90
2018-06-27T18:02:14.679Z,38.10
2018-06-27T18:04:42.827Z,38.00
2018-06-27T18:07:10.968Z,38.40
2018-06-27T18:12:07.075Z,38.80
2018-06-27T18:14:35.191Z,38.90
2018-06-27T18:17:03.293Z,38.80
2018-06-27T18:19:31.495Z,38.70
2018-06-27T18:21:59.634Z,39.10
2018-06-27T18:24:27.913Z,39.10
2018-06-27T18:26:56.007Z,39.40
2018-06-27T18:29:24.184Z,39.10
2018-06-27T18:31:52.359Z,38.60
2018-06-27T18:34:20.817Z,38.70
2018-06-27T18:39:16.926Z,39.00
2018-06-27T18:41:45.055Z,39.40
2018-06-27T18:44:13.490Z,39.70
2018-06-27T18:46:41.643Z,40.00
2018-06-27T18:49:09.776Z,40.30
2018-06-27T18:51:37.956Z,40.40
2018-06-27T18:54:06.099Z,40.70
2018-06-27T18:56:34.281Z,41.20
2018-06-27T18:59:02.463Z,41.10
2018-06-27T19:01:30.647Z,41.00
2018-06-27T19:03:58.823Z,41.50
2018-06-27T19:06:26.911Z,41.60
2018-06-27T19:08:55.011Z,42.20
2018-06-27T19:11:23.175Z,42.40
2018-06-27T19:13:51.332Z,43.40
2018-06-27T19:16:19.526Z,43.30
2018-06-27T19:18:47.635Z,43.50
2018-06-27T19:21:15.730Z,43.70
2018-06-27T19:23:43.818Z,44.30
2018-06-27T19:26:11.968Z,45.00
2018-06-27T19:28:40.106Z,45.70
2018-06-27T19:31:08.239Z,46.10
2018-06-27T19:33:36.357Z,46.70
2018-06-27T19:36:04.821Z,47.50
2018-06-27T19:38:32.947Z,48.10
2018-06-27T19:41:01.292Z,48.90
2018-06-27T19:43:29.300Z,49.70
2018-06-27T19:48:25.338Z,51.20
2018-06-27T19:50:53.479Z,51.60
2018-06-27T19:53:21.534Z,52.20
2018-06-27T19:55:49.650Z,52.90
2018-06-27T19:58:17.764Z,53.90
2018-06-27T20:00:45.859Z,54.50
2018-06-27T20:03:14.050Z,55.40
2018-06-27T20:05:42.928Z,56.20
2018-06-27T20:08:11.015Z,57.00
2018-06-27T20:10:39.293Z,57.50
2018-06-27T20:13:07.321Z,57.80
2018-06-27T20:15:35.594Z,58.30
2018-06-27T20:18:03.718Z,59.20
2018-06-27T20:20:31.894Z,58.80
2018-06-27T20:23:00.066Z,59.10
2018-06-27T20:25:28.589Z,59.40
2018-06-27T20:27:56.676Z,59.60
2018-06-27T20:30:24.803Z,60.00
2018-06-27T20:32:52.981Z,60.30
2018-06-27T20:35:21.089Z,60.40
2018-06-27T20:37:50.639Z,60.60
2018-06-27T20:40:18.821Z,60.90
2018-06-27T20:42:46.907Z,61.30
2018-06-27T20:45:15.042Z,61.50
2018-06-27T20:47:43.234Z,61.90
2018-06-27T20:50:11.344Z,62.10
2018-06-27T20:52:39.512Z,62.40
2018-06-27T20:55:07.670Z,62.60
2018-06-27T20:57:35.791Z,62.90
2018-06-27T21:00:03.863Z,63.10
2018-06-27T21:02:32.011Z,63.50
2018-06-27T21:05:00.104Z,63.70
2018-06-27T21:07:28.223Z,64.00
2018-06-27T21:09:56.300Z,64.20
2018-06-27T21:12:24.485Z,64.50
2018-06-27T21:14:52.563Z,64.60
2018-06-27T21:17:20.708Z,64.90
2018-06-27T21:19:48.884Z,65.10
2018-06-27T21:22:16.994Z,65.30
2018-06-27T21:24:45.080Z,65.50
2018-06-27T21:27:13.148Z,65.60
2018-06-27T21:29:41.270Z,65.80
2018-06-27T21:32:09.402Z,66.00
2018-06-27T21:34:37.572Z,66.10
2018-06-27T21:37:05.742Z,66.10
2018-06-27T21:39:33.826Z,66.40
2018-06-27T21:42:01.967Z,66.50
2018-06-27T21:44:30.111Z,66.60
2018-06-27T21:46:58.234Z,66.70
2018-06-27T21:49:26.340Z,66.90
2018-06-27T21:51:54.461Z,67.00
2018-06-27T21:54:22.566Z,67.10
2018-06-27T21:56:50.671Z,67.30
2018-06-27T21:59:18.808Z,67.20
2018-06-27T22:01:46.925Z,67.40
2018-06-27T22:04:15.043Z,67.60
2018-06-27T22:06:43.146Z,67.80
2018-06-27T22:09:12.281Z,68.00
2018-06-27T22:11:40.615Z,68.10
2018-06-27T22:14:08.962Z,68.30
2018-06-27T22:16:37.191Z,68.40
2018-06-27T22:19:05.336Z,68.70
2018-06-27T22:21:33.590Z,68.40
2018-06-27T22:24:02.068Z,69.10
2018-06-27T22:26:30.171Z,69.40
2018-06-27T22:28:58.350Z,69.60
2018-06-27T22:31:26.523Z,69.80
2018-06-27T22:33:54.684Z,70.00
2018-06-27T22:36:23.774Z,70.20
2018-06-27T22:38:52.050Z,70.30
2018-06-27T22:41:20.195Z,70.40
2018-06-27T22:43:48.411Z,70.70
2018-06-27T22:46:16.530Z,70.70
2018-06-27T22:48:44.665Z,70.90
2018-06-27T22:51:12.893Z,71.00
2018-06-27T22:53:41.025Z,71.00
2018-06-27T22:56:09.126Z,71.10
2018-06-27T22:58:37.329Z,71.20
2018-06-27T23:01:05.471Z,71.20
2018-06-27T23:03:33.556Z,71.20
2018-06-27T23:08:29.594Z,71.30
2018-06-27T23:10:57.689Z,71.30
2018-06-27T23:13:25.778Z,71.40
2018-06-27T23:15:53.870Z,71.40
2018-06-27T23:18:21.941Z,71.50
2018-06-27T23:20:50.121Z,71.50
2018-06-27T23:23:18.229Z,71.50
2018-06-27T23:25:46.314Z,71.60
2018-06-27T23:28:14.413Z,71.80
2018-06-27T23:30:42.542Z,72.00
2018-06-27T23:33:10.638Z,72.30
2018-06-27T23:35:38.785Z,72.60
2018-06-27T23:38:06.891Z,72.90
2018-06-27T23:40:34.985Z,73.10
2018-06-27T23:43:03.116Z,73.40
2018-06-27T23:45:31.223Z,73.80
2018-06-27T23:47:59.360Z,74.10
2018-06-27T23:50:27.464Z,75.10
2018-06-27T23:52:55.575Z,74.60
2018-06-27T23:55:23.701Z,74.70
2018-06-27T23:57:51.794Z,75.00
